Time;durP1;ratioP1;P1;durP2;ratioP2;P2;SDS_P1;SDS_P2;PMS_P1;PMS_P2;Temp;Humidity;BMP_temperature;BMP_pressure;BME280_temperature;BME280_humidity;BME280_pressure;Samples;Min_cycle;Max_cycle;Signal;HPM_P1;HPM_P2
2022/10/21 00:02:08;;;;;;;25.02;14.27;;;13.60;99.90;;;;;;5070851;28;20029;-52
2022/10/21 00:04:34;;;;;;;26.77;12.55;;;13.60;99.90;;;;;;5072625;28;20511;-56
2022/10/21 00:06:59;;;;;;;23.13;10.88;;;13.60;99.90;;;;;;5070118;28;20502;-57
2022/10/21 00:09:25;;;;;;;19.60;10.70;;;13.70;99.90;;;;;;5071765;28;20082;-56
2022/10/21 00:11:51;;;;;;;22.90;11.52;;;13.70;99.90;;;;;;5077354;28;20107;-57
2022/10/21 00:14:16;;;;;;;21.88;11.88;;;13.70;99.90;;;;;;5085452;28;20131;-60
2022/10/21 00:16:42;;;;;;;18.10;10.73;;;13.70;99.90;;;;;;5093960;28;20020;-57
2022/10/21 00:19:07;;;;;;;18.90;10.48;;;13.70;99.90;;;;;;5093838;28;20425;-57
2022/10/21 00:21:35;;;;;;;18.83;9.95;;;13.70;99.90;;;;;;5094864;28;20055;-57
2022/10/21 00:24:00;;;;;;;19.08;10.30;;;13.60;99.90;;;;;;5083407;28;20074;-57
2022/10/21 00:26:26;;;;;;;17.23;9.82;;;13.60;99.90;;;;;;5073995;28;20079;-55
2022/10/21 00:28:56;;;;;;;18.38;9.43;;;13.60;99.90;;;;;;5086079;28;20035;-54
2022/10/21 00:31:21;;;;;;;19.30;11.07;;;13.60;99.90;;;;;;5094530;28;20056;-57
2022/10/21 00:33:47;;;;;;;24.50;12.55;;;13.70;99.90;;;;;;5085806;28;20051;-59
2022/10/21 00:36:14;;;;;;;23.13;12.38;;;13.70;99.90;;;;;;5073935;28;20035;-54
2022/10/21 00:38:40;;;;;;;21.33;10.98;;;13.70;99.90;;;;;;5074139;28;20146;-57
2022/10/21 00:41:06;;;;;;;21.40;11.35;;;13.70;99.90;;;;;;5073458;28;20106;-56
2022/10/21 00:43:31;;;;;;;21.63;11.07;;;13.80;99.90;;;;;;5079552;28;20105;-57
2022/10/21 00:46:01;;;;;;;20.10;11.27;;;13.80;99.90;;;;;;5093929;28;20031;-56
2022/10/21 00:48:41;;;;;;;20.42;10.85;;;13.80;99.90;;;;;;5093650;28;20031;-60
2022/10/21 00:51:06;;;;;;;23.40;12.23;;;13.80;99.90;;;;;;5094024;28;20027;-61
2022/10/21 00:53:34;;;;;;;19.17;10.38;;;13.80;99.90;;;;;;5093806;28;20020;-61
2022/10/21 00:56:06;;;;;;;32.88;16.58;;;13.80;99.90;;;;;;5092845;28;20024;-63
2022/10/21 00:58:34;;;;;;;39.03;23.02;;;13.90;99.90;;;;;;5094190;28;20028;-64
2022/10/21 01:01:01;;;;;;;60.92;33.58;;;13.90;99.90;;;;;;5093370;28;20122;-63
2022/10/21 01:03:28;;;;;;;42.63;24.73;;;13.90;99.90;;;;;;5093508;28;20023;-63
2022/10/21 01:05:56;;;;;;;40.70;22.08;;;13.90;99.90;;;;;;5094327;28;20352;-64
2022/10/21 01:08:22;;;;;;;38.42;20.90;;;13.90;99.90;;;;;;5093593;28;20044;-63
2022/10/21 01:10:48;;;;;;;37.42;21.25;;;13.80;99.90;;;;;;5094334;28;20016;-66
2022/10/21 01:13:35;;;;;;;33.13;17.55;;;13.80;99.90;;;;;;5092065;28;20035;-66
2022/10/21 01:16:13;;;;;;;22.08;11.38;;;13.80;99.90;;;;;;5073060;28;20530;-66
2022/10/21 01:19:01;;;;;;;26.20;13.02;;;13.80;99.90;;;;;;5089518;28;20086;-63
2022/10/21 01:21:34;;;;;;;25.42;14.18;;;13.70;99.90;;;;;;5093927;28;20046;-65
2022/10/21 01:24:47;;;;;;;35.90;18.13;;;13.70;99.90;;;;;;5091765;28;20068;-56
2022/10/21 01:27:16;;;;;;;49.08;26.88;;;13.70;99.90;;;;;;5070921;28;20465;-53
2022/10/21 01:30:07;;;;;;;59.08;32.40;;;13.60;99.90;;;;;;5089369;28;20025;-56
2022/10/21 01:32:42;;;;;;;54.70;32.43;;;13.60;99.90;;;;;;5090566;28;20040;-57
2022/10/21 01:35:22;;;;;;;53.58;30.73;;;13.60;99.90;;;;;;5092294;28;20286;-57
2022/10/21 01:38:23;;;;;;;40.50;22.45;;;13.50;99.90;;;;;;5092783;28;20031;-54
2022/10/21 01:41:19;;;;;;;31.77;17.73;;;13.40;99.90;;;;;;5081212;28;20040;-53
2022/10/21 01:43:55;;;;;;;32.22;16.55;;;13.40;99.90;;;;;;5091180;28;20533;-56
2022/10/21 01:46:32;;;;;;;37.72;20.75;;;13.30;99.90;;;;;;5092966;28;20028;-57
2022/10/21 01:49:06;;;;;;;43.50;24.10;;;13.30;99.90;;;;;;5092748;28;20028;-56
2022/10/21 01:51:34;;;;;;;42.03;23.10;;;13.20;99.90;;;;;;5092356;28;20028;-57
2022/10/21 01:54:06;;;;;;;42.63;24.25;;;13.20;99.90;;;;;;5086525;28;20059;-56
2022/10/21 01:56:32;;;;;;;32.28;17.50;;;13.20;99.90;;;;;;5082901;28;20466;-55
2022/10/21 01:59:00;;;;;;;25.25;13.88;;;13.10;99.90;;;;;;5091932;28;20069;-57
2022/10/21 02:01:26;;;;;;;26.20;11.38;;;13.10;99.90;;;;;;5092881;28;20024;-56
2022/10/21 02:03:59;;;;;;;23.13;13.00;;;13.00;99.90;;;;;;5091400;28;20046;-57
2022/10/21 02:06:25;;;;;;;21.05;10.32;;;12.90;99.90;;;;;;5092175;28;20081;-56
2022/10/21 02:08:51;;;;;;;17.50;9.68;;;12.90;99.90;;;;;;5092818;28;20023;-54
2022/10/21 02:11:17;;;;;;;16.80;8.70;;;12.80;99.90;;;;;;5090947;28;20508;-57
2022/10/21 02:13:57;;;;;;;18.73;9.57;;;12.80;99.90;;;;;;5089768;28;20024;-56
2022/10/21 02:16:27;;;;;;;16.67;8.77;;;12.80;99.90;;;;;;5072779;28;20020;-57
2022/10/21 02:18:55;;;;;;;16.23;9.00;;;12.70;99.90;;;;;;5078492;28;20029;-58
2022/10/21 02:21:24;;;;;;;16.13;8.77;;;12.70;99.90;;;;;;5072613;28;20435;-59
2022/10/21 02:23:57;;;;;;;16.50;9.13;;;12.60;99.90;;;;;;5072344;28;20071;-59
2022/10/21 02:26:26;;;;;;;18.10;9.60;;;12.60;99.90;;;;;;5091937;28;20060;-59
2022/10/21 02:28:54;;;;;;;17.75;10.25;;;12.60;99.90;;;;;;5092546;28;20020;-56
2022/10/21 02:32:13;;;;;;;15.32;9.07;;;12.50;99.90;;;;;;5092223;28;20107;-55
2022/10/21 02:35:13;;;;;;;17.80;8.57;;;12.50;99.90;;;;;;5047486;28;20055;-59
2022/10/21 02:37:42;;;;;;;17.92;8.40;;;12.50;99.90;;;;;;5072046;28;20525;-58
2022/10/21 02:40:19;;;;;;;16.60;8.60;;;12.50;99.90;;;;;;5092703;28;20065;-64
2022/10/21 02:42:51;;;;;;;15.32;8.50;;;12.40;99.90;;;;;;5092271;28;20031;-58
2022/10/21 02:45:16;;;;;;;;;;;12.30;99.90;;;;;;5092672;28;20541;-56
2022/10/21 02:47:42;;;;;;;16.63;9.35;;;12.30;99.90;;;;;;5091911;28;20309;-56
2022/10/21 02:50:08;;;;;;;16.52;9.52;;;12.20;99.90;;;;;;5092107;28;20387;-58
2022/10/21 02:52:34;;;;;;;15.30;8.38;;;12.20;99.90;;;;;;5092063;28;20046;-55
2022/10/21 02:54:59;;;;;;;15.80;8.57;;;12.20;99.90;;;;;;5091351;28;20020;-58
2022/10/21 02:57:25;;;;;;;14.45;7.45;;;12.20;99.90;;;;;;5091506;28;20024;-56
2022/10/21 02:59:50;;;;;;;14.63;8.35;;;12.20;99.90;;;;;;5091899;28;20036;-61
2022/10/21 03:02:16;;;;;;;16.13;8.40;;;12.10;99.90;;;;;;5091073;28;20369;-59
2022/10/21 03:04:42;;;;;;;17.60;8.95;;;12.10;99.90;;;;;;5092071;28;20108;-59
2022/10/21 03:07:07;;;;;;;16.42;9.05;;;12.00;99.90;;;;;;5091495;28;20020;-57
2022/10/21 03:09:33;;;;;;;13.73;7.80;;;12.00;99.90;;;;;;5091073;28;20020;-59
2022/10/21 03:11:58;;;;;;;17.45;9.48;;;12.00;99.90;;;;;;5091792;28;20102;-57
2022/10/21 03:14:24;;;;;;;18.70;8.75;;;12.00;99.90;;;;;;5091817;28;20031;-59
2022/10/21 03:16:49;;;;;;;16.95;8.50;;;12.00;99.90;;;;;;5091334;28;20122;-57
2022/10/21 03:19:15;;;;;;;16.08;9.20;;;11.90;99.90;;;;;;5091322;28;20020;-59
2022/10/21 03:21:40;;;;;;;16.05;8.35;;;11.90;99.90;;;;;;5091601;28;20031;-55
2022/10/21 03:24:06;;;;;;;17.27;8.48;;;11.90;99.90;;;;;;5086918;28;20051;-59
2022/10/21 03:26:32;;;;;;;17.27;7.93;;;11.90;99.90;;;;;;5090266;28;20016;-55
2022/10/21 03:28:57;;;;;;;14.18;8.15;;;11.90;99.90;;;;;;5090361;28;20028;-57
2022/10/21 03:31:23;;;;;;;12.93;7.57;;;11.90;99.90;;;;;;5091694;28;20031;-58
2022/10/21 03:33:48;;;;;;;14.48;7.80;;;11.80;99.90;;;;;;5089624;28;20032;-59
2022/10/21 03:36:14;;;;;;;13.65;7.65;;;11.80;99.90;;;;;;5092304;28;20070;-56
2022/10/21 03:38:39;;;;;;;13.10;7.05;;;11.80;99.90;;;;;;5106404;28;20028;-56
2022/10/21 03:41:05;;;;;;;14.10;6.93;;;11.80;99.90;;;;;;5111127;28;20019;-58
2022/10/21 03:43:30;;;;;;;14.02;7.47;;;11.80;99.90;;;;;;5111967;28;20027;-58
2022/10/21 03:45:56;;;;;;;18.35;8.27;;;11.80;99.90;;;;;;5097140;28;20028;-56
2022/10/21 03:48:22;;;;;;;15.85;7.68;;;11.70;99.90;;;;;;5091232;28;20020;-55
2022/10/21 03:50:47;;;;;;;21.35;8.40;;;11.70;99.90;;;;;;5091594;28;20031;-55
2022/10/21 03:53:13;;;;;;;18.98;8.55;;;11.80;99.90;;;;;;5093996;28;20023;-55
2022/10/21 03:55:39;;;;;;;17.35;8.00;;;11.70;99.90;;;;;;5094836;28;20107;-58
2022/10/21 03:58:04;;;;;;;17.40;7.90;;;11.70;99.90;;;;;;5094897;28;20028;-59
2022/10/21 04:00:30;;;;;;;14.82;8.18;;;11.70;99.90;;;;;;5095364;28;20036;-55
2022/10/21 04:02:55;;;;;;;16.95;7.47;;;11.60;99.90;;;;;;5095748;28;20020;-57
2022/10/21 04:05:21;;;;;;;12.85;7.22;;;11.60;99.90;;;;;;5094129;28;20396;-56
2022/10/21 04:07:47;;;;;;;22.08;7.07;;;11.50;99.90;;;;;;5094814;28;20452;-59
2022/10/21 04:10:12;;;;;;;19.65;7.20;;;11.50;99.90;;;;;;5093962;28;20483;-57
2022/10/21 04:12:38;;;;;;;9.95;5.95;;;11.50;99.90;;;;;;5094766;28;20428;-61
2022/10/21 04:15:04;;;;;;;12.38;5.80;;;11.50;99.90;;;;;;5094580;28;20024;-55
2022/10/21 04:17:30;;;;;;;9.93;5.50;;;11.40;99.90;;;;;;5094226;28;20024;-58
2022/10/21 04:19:56;;;;;;;14.07;5.20;;;11.40;99.90;;;;;;5094839;28;20040;-56
2022/10/21 04:22:21;;;;;;;8.85;5.60;;;11.40;99.90;;;;;;5094549;28;20399;-60
2022/10/21 04:24:47;;;;;;;8.38;5.25;;;11.40;99.90;;;;;;5097622;28;20031;-56
2022/10/21 04:27:13;;;;;;;9.02;4.88;;;11.30;99.90;;;;;;5101150;28;20488;-55
2022/10/21 04:29:38;;;;;;;9.05;5.05;;;11.30;99.90;;;;;;5096360;28;20110;-56
2022/10/21 04:32:04;;;;;;;8.98;4.70;;;11.30;99.90;;;;;;5092868;28;20435;-56
2022/10/21 04:34:30;;;;;;;14.48;5.22;;;11.30;99.90;;;;;;5095027;28;20123;-56
2022/10/21 04:36:55;;;;;;;8.35;4.90;;;11.20;99.90;;;;;;5094607;28;20189;-59
2022/10/21 04:39:21;;;;;;;9.93;5.20;;;11.20;99.90;;;;;;5093482;28;20127;-58
2022/10/21 04:41:48;;;;;;;9.18;4.97;;;11.10;99.90;;;;;;5094413;28;20092;-56
2022/10/21 04:44:14;;;;;;;7.47;4.63;;;11.10;99.90;;;;;;5093683;28;20024;-58
2022/10/21 04:46:40;;;;;;;7.68;4.15;;;11.00;99.90;;;;;;5094272;28;20027;-58
2022/10/21 04:49:05;;;;;;;8.07;4.40;;;11.00;99.90;;;;;;5091923;28;20384;-59
2022/10/21 04:51:31;;;;;;;7.38;4.40;;;10.90;99.90;;;;;;5091960;28;20038;-57
2022/10/21 04:53:56;;;;;;;6.47;4.38;;;11.00;99.90;;;;;;5093051;28;20106;-59
2022/10/21 04:56:22;;;;;;;7.38;4.38;;;10.90;99.90;;;;;;5093775;28;20020;-61
2022/10/21 04:58:47;;;;;;;9.25;4.20;;;10.80;99.90;;;;;;5093501;28;20081;-63
2022/10/21 05:01:13;;;;;;;7.68;4.28;;;10.80;99.90;;;;;;5094057;28;20024;-60
2022/10/21 05:03:38;;;;;;;7.90;4.40;;;10.80;99.90;;;;;;5094443;28;20027;-59
2022/10/21 05:06:04;;;;;;;8.88;4.85;;;10.70;99.90;;;;;;5093346;28;20077;-60
2022/10/21 05:08:30;;;;;;;8.05;4.90;;;10.70;99.90;;;;;;5094140;28;20020;-66
2022/10/21 05:11:00;;;;;;;8.63;5.43;;;10.70;99.90;;;;;;5094624;28;20031;-65
2022/10/21 05:13:27;;;;;;;10.55;5.80;;;10.70;99.90;;;;;;5093339;28;20062;-63
2022/10/21 05:15:57;;;;;;;13.55;7.15;;;10.70;99.90;;;;;;5094113;28;20046;-66
2022/10/21 05:18:22;;;;;;;14.32;7.75;;;10.70;99.90;;;;;;5093327;27;20035;-63
2022/10/21 05:20:50;;;;;;;14.00;7.78;;;10.70;99.90;;;;;;5096318;28;20101;-66
2022/10/21 05:23:16;;;;;;;12.30;6.40;;;10.70;99.90;;;;;;5092531;28;20184;-64
2022/10/21 05:25:43;;;;;;;9.80;6.32;;;10.60;99.90;;;;;;5092612;28;20037;-65
2022/10/21 05:28:09;;;;;;;10.43;6.10;;;10.60;99.90;;;;;;5092063;28;20024;-64
2022/10/21 05:30:35;;;;;;;7.85;4.78;;;10.60;99.90;;;;;;5092470;28;20047;-66
2022/10/21 05:33:00;;;;;;;9.73;5.57;;;10.50;99.90;;;;;;5092657;28;20471;-63
2022/10/21 05:35:26;;;;;;;7.95;5.07;;;10.50;99.90;;;;;;5092376;28;20032;-63
2022/10/21 05:37:51;;;;;;;10.52;5.30;;;10.50;99.90;;;;;;5092464;28;20024;-63
2022/10/21 05:40:17;;;;;;;9.63;4.82;;;10.50;99.90;;;;;;5094507;28;20043;-58
2022/10/21 05:42:44;;;;;;;8.48;4.50;;;10.40;99.90;;;;;;5100947;28;20431;-64
2022/10/21 05:45:10;;;;;;;9.25;5.00;;;10.40;99.90;;;;;;5112468;28;20462;-67
2022/10/21 05:47:37;;;;;;;8.40;4.70;;;10.40;99.90;;;;;;5097559;28;20401;-65
2022/10/21 05:50:03;;;;;;;7.55;4.38;;;10.40;99.90;;;;;;5092624;28;20031;-55
2022/10/21 05:52:28;;;;;;;11.88;4.55;;;10.40;99.90;;;;;;5092203;28;20024;-65
2022/10/21 05:54:54;;;;;;;8.05;4.30;;;10.40;99.90;;;;;;5092037;28;20028;-52
2022/10/21 05:57:19;;;;;;;6.72;4.18;;;10.40;99.90;;;;;;5091875;28;20601;-55
2022/10/21 05:59:45;;;;;;;7.15;4.35;;;10.30;99.90;;;;;;5092621;28;20055;-66
2022/10/21 06:02:11;;;;;;;8.95;4.35;;;10.40;99.90;;;;;;5091319;28;20016;-66
2022/10/21 06:04:36;;;;;;;8.02;4.30;;;10.30;99.90;;;;;;5092232;28;20457;-61
2022/10/21 06:07:02;;;;;;;12.00;5.10;;;10.40;99.90;;;;;;5090870;28;20481;-63
2022/10/21 06:09:28;;;;;;;13.32;6.93;;;10.40;99.90;;;;;;5091555;28;20520;-65
2022/10/21 06:11:56;;;;;;;14.57;6.18;;;10.40;99.90;;;;;;5092082;28;20111;-66
2022/10/21 06:14:22;;;;;;;12.00;6.70;;;10.50;99.90;;;;;;5091930;28;20027;-63
2022/10/21 06:16:48;;;;;;;14.57;7.15;;;10.50;99.90;;;;;;5091385;28;20016;-56
2022/10/21 06:19:13;;;;;;;12.60;5.72;;;10.50;99.90;;;;;;5091435;28;20460;-56
2022/10/21 06:21:39;;;;;;;10.05;4.97;;;10.50;99.90;;;;;;5091916;28;20173;-56
2022/10/21 06:24:04;;;;;;;9.80;4.38;;;10.50;99.90;;;;;;5086573;28;99931;-57
2022/10/21 06:26:30;;;;;;;6.65;3.80;;;10.50;99.90;;;;;;5092343;28;20035;-56
2022/10/21 06:28:56;;;;;;;7.47;4.32;;;10.50;99.90;;;;;;5091521;28;20020;-55
2022/10/21 06:31:22;;;;;;;7.18;3.80;;;10.60;99.90;;;;;;5099450;28;20028;-58
2022/10/21 06:33:48;;;;;;;7.03;4.00;;;10.50;99.90;;;;;;5101146;28;20024;-54
2022/10/21 06:36:14;;;;;;;10.18;4.90;;;10.50;99.90;;;;;;5106272;28;20022;-59
2022/10/21 06:38:40;;;;;;;11.77;6.63;;;10.50;99.90;;;;;;5112608;28;20088;-59
2022/10/21 06:41:08;;;;;;;12.20;6.80;;;10.60;99.90;;;;;;5113025;28;20038;-56
2022/10/21 06:43:34;;;;;;;11.77;6.60;;;10.60;99.90;;;;;;5112781;28;20051;-57
2022/10/21 06:46:01;;;;;;;13.07;7.10;;;10.70;99.90;;;;;;5111443;28;20063;-56
2022/10/21 06:48:28;;;;;;;14.98;7.20;;;10.70;99.90;;;;;;5112607;28;20015;-55
2022/10/21 06:50:58;;;;;;;12.50;6.60;;;10.80;99.90;;;;;;5111847;28;20517;-58
2022/10/21 06:53:24;;;;;;;13.70;6.60;;;10.80;99.90;;;;;;5112518;28;20023;-55
2022/10/21 06:55:49;;;;;;;11.68;6.45;;;10.90;99.90;;;;;;5112159;28;20168;-58
2022/10/21 06:58:15;;;;;;;11.68;6.20;;;11.00;99.90;;;;;;5111545;28;20023;-59
2022/10/21 07:00:40;;;;;;;11.32;5.82;;;11.10;99.90;;;;;;5112406;28;20027;-57
2022/10/21 07:03:06;;;;;;;11.70;6.45;;;11.20;99.90;;;;;;5093242;28;20028;-57
2022/10/21 07:05:31;;;;;;;10.30;5.65;;;11.30;99.90;;;;;;5071295;28;20673;-57
2022/10/21 07:07:57;;;;;;;10.48;5.90;;;11.40;99.90;;;;;;5071201;28;20042;-57
2022/10/21 07:10:23;;;;;;;10.45;6.43;;;11.50;99.90;;;;;;5072000;28;20025;-58
2022/10/21 07:12:48;;;;;;;13.45;7.53;;;11.50;99.90;;;;;;5071038;28;20025;-64
2022/10/21 07:15:14;;;;;;;20.02;11.55;;;11.60;99.90;;;;;;5083216;28;20020;-58
2022/10/21 07:17:39;;;;;;;16.90;9.52;;;11.70;99.90;;;;;;5112051;28;20027;-62
2022/10/21 07:20:05;;;;;;;15.70;7.45;;;11.70;99.90;;;;;;5111391;28;20024;-62
2022/10/21 07:22:31;;;;;;;12.65;6.85;;;11.80;99.90;;;;;;5112130;28;20134;-58
2022/10/21 07:24:56;;;;;;;12.00;6.03;;;11.80;99.90;;;;;;5111714;28;20122;-56
2022/10/21 07:27:22;;;;;;;11.70;5.95;;;11.80;99.90;;;;;;5112891;28;20027;-55
2022/10/21 07:29:48;;;;;;;9.98;5.40;;;11.90;99.90;;;;;;5116277;28;20057;-55
2022/10/21 07:32:13;;;;;;;10.88;5.97;;;11.90;99.90;;;;;;5116093;28;20025;-61
2022/10/21 07:34:39;;;;;;;11.85;6.53;;;12.00;99.90;;;;;;5115857;28;20034;-61
2022/10/21 07:37:05;;;;;;;12.68;6.97;;;12.00;99.90;;;;;;5116302;28;20016;-58
2022/10/21 07:39:33;;;;;;;11.07;6.30;;;12.10;99.90;;;;;;5116018;28;20049;-58
2022/10/21 07:41:58;;;;;;;13.02;6.13;;;12.20;99.90;;;;;;5115096;28;20027;-64
2022/10/21 07:44:25;;;;;;;11.68;5.30;;;12.20;99.90;;;;;;5116351;28;20148;-65
2022/10/21 07:46:52;;;;;;;12.98;6.07;;;12.30;99.90;;;;;;5116108;28;20023;-66
2022/10/21 07:49:19;;;;;;;13.98;7.40;;;12.40;99.90;;;;;;5103610;28;20016;-56
2022/10/21 07:51:45;;;;;;;15.85;8.82;;;12.50;99.90;;;;;;5095906;28;20032;-57
2022/10/21 07:54:13;;;;;;;20.75;10.88;;;12.60;99.90;;;;;;5093877;28;20358;-58
2022/10/21 07:56:41;;;;;;;26.10;13.90;;;12.70;99.90;;;;;;5093190;28;20028;-64
2022/10/21 07:59:08;;;;;;;34.28;18.67;;;12.80;99.90;;;;;;5093496;28;20075;-65
2022/10/21 08:01:35;;;;;;;30.45;17.00;;;13.00;99.90;;;;;;5093912;28;20013;-55
2022/10/21 08:04:01;;;;;;;29.50;17.63;;;13.10;99.90;;;;;;5095125;28;20043;-56
2022/10/21 08:06:28;;;;;;;34.42;19.38;;;13.10;99.90;;;;;;5095107;28;20102;-64
2022/10/21 08:08:56;;;;;;;31.15;19.17;;;13.20;99.90;;;;;;5093521;28;20463;-63
2022/10/21 08:11:27;;;;;;;32.55;19.00;;;13.30;99.90;;;;;;5094977;28;20032;-60
2022/10/21 08:13:53;;;;;;;;;;;13.40;99.90;;;;;;5095545;28;20099;-60
2022/10/21 08:16:19;;;;;;;28.55;16.90;;;13.50;99.90;;;;;;5094073;28;20112;-57
2022/10/21 08:18:45;;;;;;;28.08;14.65;;;13.50;99.90;;;;;;5094721;28;20027;-59
2022/10/21 08:21:10;;;;;;;25.77;14.80;;;13.60;99.90;;;;;;5094708;28;20032;-57
2022/10/21 08:23:36;;;;;;;18.75;11.02;;;13.70;99.90;;;;;;5094142;28;20540;-59
2022/10/21 08:26:02;;;;;;;21.65;11.77;;;13.80;99.90;;;;;;5094540;28;20032;-57
2022/10/21 08:28:29;;;;;;;25.63;12.20;;;13.90;99.90;;;;;;5094618;28;20067;-58
2022/10/21 08:31:03;;;;;;;29.13;15.52;;;14.00;99.90;;;;;;5094035;28;20520;-59
2022/10/21 08:33:28;;;;;;;25.23;15.25;;;14.10;99.90;;;;;;5094728;28;20032;-57
2022/10/21 08:35:54;;;;;;;25.73;15.65;;;14.20;99.90;;;;;;5094650;28;20062;-61
2022/10/21 08:38:20;;;;;;;33.95;21.13;;;14.30;99.90;;;;;;5096251;28;20032;-61
2022/10/21 08:40:47;;;;;;;32.85;20.02;;;14.40;99.90;;;;;;5103172;28;20041;-59
2022/10/21 08:43:26;;;;;;;24.38;13.18;;;14.50;99.90;;;;;;5094533;28;20031;-57
2022/10/21 08:46:03;;;;;;;17.08;10.07;;;14.60;99.90;;;;;;5093248;28;20048;-57
2022/10/21 08:48:41;;;;;;;16.30;9.60;;;14.70;99.90;;;;;;5094502;28;20028;-57
2022/10/21 08:51:21;;;;;;;14.85;8.85;;;14.70;99.90;;;;;;5093557;28;20028;-58
2022/10/21 08:53:50;;;;;;;17.35;9.00;;;14.80;99.90;;;;;;5092940;28;20032;-60
2022/10/21 08:56:15;;;;;;;18.20;9.38;;;14.80;99.90;;;;;;5094013;28;20020;-58
2022/10/21 08:58:45;;;;;;;16.65;10.35;;;14.90;99.90;;;;;;5093483;28;20354;-58
2022/10/21 09:01:39;;;;;;;29.65;16.88;;;15.00;99.90;;;;;;5093969;28;20062;-61
2022/10/21 09:04:38;;;;;;;25.88;16.13;;;15.00;99.90;;;;;;5093758;28;20053;-59
2022/10/21 09:07:13;;;;;;;24.88;14.77;;;15.10;99.90;;;;;;5088960;28;20032;-60
2022/10/21 09:09:47;;;;;;;17.90;10.20;;;15.20;99.90;;;;;;5095794;28;20372;-57
2022/10/21 09:12:38;;;;;;;25.52;15.35;;;15.20;99.90;;;;;;5088557;28;20524;-55
2022/10/21 09:15:06;;;;;;;19.83;12.25;;;15.30;99.90;;;;;;5084181;28;20111;-57
2022/10/21 09:18:03;;;;;;;19.65;10.90;;;15.30;99.90;;;;;;5093236;28;20071;-59
2022/10/21 09:20:40;;;;;;;20.60;12.73;;;15.40;99.90;;;;;;5091941;28;20031;-59
2022/10/21 09:23:33;;;;;;;25.35;14.27;;;15.40;99.90;;;;;;5101233;28;20044;-57
2022/10/21 09:26:00;;;;;;;26.10;15.68;;;15.50;99.90;;;;;;5079230;28;20033;-58
2022/10/21 09:28:27;;;;;;;28.20;16.73;;;15.50;99.90;;;;;;5073082;28;20028;-58
2022/10/21 09:30:54;;;;;;;32.97;20.23;;;15.50;99.90;;;;;;5076834;28;20055;-58
2022/10/21 09:33:29;;;;;;;29.67;17.90;;;15.60;99.90;;;;;;5075134;28;20115;-59
2022/10/21 09:36:10;;;;;;;27.98;16.58;;;15.60;99.90;;;;;;5086565;28;20032;-61
2022/10/21 09:38:41;;;;;;;24.95;17.38;;;15.60;99.90;;;;;;5085372;28;20023;-61
2022/10/21 09:41:15;;;;;;;22.38;11.95;;;15.70;99.90;;;;;;5085844;28;20041;-59
2022/10/21 09:43:41;;;;;;;20.30;10.75;;;15.80;99.90;;;;;;5071426;28;20450;-59
2022/10/21 09:46:13;;;;;;;23.40;13.18;;;15.80;99.90;;;;;;5089391;28;20046;-58
2022/10/21 09:48:53;;;;;;;27.67;18.05;;;15.80;99.90;;;;;;5095012;28;20016;-59
2022/10/21 09:51:27;;;;;;;25.50;16.33;;;15.80;99.90;;;;;;5090488;28;20391;-65
2022/10/21 09:53:55;;;;;;;25.35;13.88;;;15.80;99.90;;;;;;5097912;28;20020;-64
2022/10/21 09:56:26;;;;;;;20.63;10.68;;;15.80;99.90;;;;;;5085532;28;20494;-58
2022/10/21 09:59:08;;;;;;;21.10;13.10;;;15.80;99.90;;;;;;5091690;28;20028;-62
2022/10/21 10:01:36;;;;;;;23.50;15.10;;;15.80;99.90;;;;;;5090165;28;20028;-66
2022/10/21 10:04:09;;;;;;;19.92;11.90;;;15.90;99.90;;;;;;5091382;28;20344;-66
2022/10/21 10:06:37;;;;;;;22.60;14.60;;;16.00;99.90;;;;;;5079924;28;20526;-63
2022/10/21 10:09:11;;;;;;;19.58;11.30;;;16.10;99.90;;;;;;5086227;28;20034;-64
2022/10/21 10:11:49;;;;;;;18.52;11.32;;;16.10;99.90;;;;;;5087539;28;20028;-66
2022/10/21 10:14:28;;;;;;;26.85;18.27;;;16.10;99.90;;;;;;5071219;28;20035;-65
2022/10/21 10:16:55;;;;;;;24.60;16.48;;;16.10;99.90;;;;;;5090168;28;20276;-66
2022/10/21 10:19:27;;;;;;;28.02;17.92;;;16.00;99.90;;;;;;5071824;28;20037;-61
2022/10/21 10:22:07;;;;;;;25.17;15.73;;;16.00;99.90;;;;;;5078865;28;20020;-66
2022/10/21 10:24:33;;;;;;;23.93;14.03;;;16.00;99.90;;;;;;5091439;28;20040;-66
2022/10/21 10:27:10;;;;;;;17.95;12.60;;;16.00;99.90;;;;;;5084135;28;20021;-65
2022/10/21 10:29:36;;;;;;;24.58;15.30;;;16.00;99.90;;;;;;5091294;28;20024;-57
2022/10/21 10:32:03;;;;;;;32.70;22.65;;;15.90;99.90;;;;;;5091101;28;20012;-59
2022/10/21 10:34:35;;;;;;;31.67;19.02;;;15.90;99.90;;;;;;5082674;28;20044;-58
2022/10/21 10:37:14;;;;;;;34.90;21.10;;;15.90;99.90;;;;;;5103639;28;20028;-58
2022/10/21 10:39:41;;;;;;;34.28;21.73;;;16.00;99.90;;;;;;5112347;28;20058;-53
2022/10/21 10:42:07;;;;;;;29.95;19.30;;;16.10;99.90;;;;;;5111752;28;20075;-60
2022/10/21 10:44:38;;;;;;;30.85;19.98;;;16.10;99.90;;;;;;5110964;28;20357;-60
2022/10/21 10:47:07;;;;;;;26.05;14.15;;;16.10;99.90;;;;;;5105445;28;20058;-59
2022/10/21 10:49:41;;;;;;;21.13;13.98;;;16.10;99.90;;;;;;5096518;28;20016;-59
2022/10/21 10:52:09;;;;;;;18.38;9.10;;;16.10;99.90;;;;;;5089843;28;20028;-57
2022/10/21 10:54:36;;;;;;;14.23;8.35;;;16.10;99.90;;;;;;5091581;28;20060;-58
2022/10/21 10:57:04;;;;;;;12.07;6.97;;;16.10;99.90;;;;;;5071796;28;20414;-57
2022/10/21 10:59:47;;;;;;;21.63;10.77;;;16.10;99.90;;;;;;5070857;28;20028;-59
2022/10/21 11:02:54;;;;;;;22.45;13.75;;;16.10;99.90;;;;;;5071024;28;20052;-55
2022/10/21 11:05:26;;;;;;;27.08;17.90;;;16.00;99.90;;;;;;5053898;28;20146;-59
2022/10/21 11:08:09;;;;;;;24.33;17.33;;;16.00;99.90;;;;;;5101557;28;20094;-57
2022/10/21 11:10:48;;;;;;;23.27;17.27;;;16.00;99.90;;;;;;5107140;28;20024;-59
2022/10/21 11:13:18;;;;;;;29.27;20.17;;;16.00;99.90;;;;;;5110633;28;20077;-56
2022/10/21 11:16:10;;;;;;;29.55;20.35;;;16.00;99.90;;;;;;5094711;28;20016;-57
2022/10/21 11:18:44;;;;;;;18.88;12.50;;;16.00;99.90;;;;;;5070757;28;20165;-58
2022/10/21 11:21:28;;;;;;;18.08;12.88;;;16.10;99.90;;;;;;5073127;28;20031;-57
2022/10/21 11:24:27;;;;;;;24.33;15.77;;;16.10;99.90;;;;;;5090850;28;20044;-57
2022/10/21 11:27:09;;;;;;;18.05;11.32;;;16.10;99.90;;;;;;5086757;28;20467;-59
2022/10/21 11:29:37;;;;;;;16.45;10.43;;;16.20;99.90;;;;;;5071393;28;20025;-59
2022/10/21 11:32:21;;;;;;;15.98;7.40;;;16.30;99.90;;;;;;5070779;28;20025;-58
2022/10/21 11:34:53;;;;;;;11.55;7.10;;;16.40;99.90;;;;;;5102140;28;20028;-58
2022/10/21 11:37:36;;;;;;;13.27;6.60;;;16.40;99.90;;;;;;5090324;28;20024;-57
2022/10/21 11:40:14;;;;;;;14.52;9.50;;;16.50;99.90;;;;;;5090332;28;20032;-62
2022/10/21 11:42:47;;;;;;;18.35;9.63;;;16.50;99.90;;;;;;5089492;28;20027;-59
2022/10/21 11:45:25;;;;;;;15.05;9.15;;;16.60;99.90;;;;;;5091001;28;20020;-62
2022/10/21 11:47:55;;;;;;;23.63;14.18;;;16.60;99.90;;;;;;5089963;28;20472;-57
2022/10/21 11:50:36;;;;;;;15.60;10.35;;;16.60;99.90;;;;;;5091289;28;20024;-59
2022/10/21 11:53:26;;;;;;;16.52;11.52;;;16.60;99.90;;;;;;5090732;28;20028;-59
2022/10/21 11:56:11;;;;;;;14.65;9.20;;;16.70;99.90;;;;;;5086302;28;20036;-62
2022/10/21 11:58:55;;;;;;;23.52;13.38;;;16.80;99.90;;;;;;5087425;28;20032;-62
2022/10/21 12:01:45;;;;;;;19.90;13.27;;;17.00;99.90;;;;;;5091233;28;20119;-65
2022/10/21 12:04:28;;;;;;;15.93;9.20;;;17.10;99.90;;;;;;5093380;28;20050;-65
2022/10/21 12:07:22;;;;;;;14.70;8.05;;;17.20;99.90;;;;;;5079443;28;20487;-61
2022/10/21 12:10:32;;;;;;;12.82;7.93;;;17.40;99.90;;;;;;5086429;28;20028;-62
2022/10/21 12:13:09;;;;;;;12.00;7.30;;;17.50;99.90;;;;;;5070311;28;20044;-64
2022/10/21 12:15:42;;;;;;;11.15;6.57;;;17.70;99.90;;;;;;5093650;28;20321;-63
2022/10/21 12:18:15;;;;;;;16.55;9.07;;;17.80;99.90;;;;;;5094739;28;20029;-65
2022/10/21 12:20:42;;;;;;;16.63;9.52;;;17.80;99.90;;;;;;5088444;28;20126;-58
2022/10/21 12:23:12;;;;;;;12.25;7.28;;;17.80;99.90;;;;;;5086702;28;20051;-61
2022/10/21 12:25:42;;;;;;;13.52;7.28;;;17.90;99.90;;;;;;5110073;28;20032;-60
2022/10/21 12:28:17;;;;;;;12.05;6.65;;;17.90;99.90;;;;;;5093316;28;20488;-61
2022/10/21 12:30:52;;;;;;;14.10;9.40;;;17.90;99.90;;;;;;5092007;28;20024;-59
2022/10/21 12:33:27;;;;;;;11.10;6.53;;;17.90;99.90;;;;;;5084784;28;20054;-59
2022/10/21 12:36:10;;;;;;;10.45;5.75;;;18.00;99.90;;;;;;5073305;28;20128;-58
2022/10/21 12:38:57;;;;;;;10.02;5.00;;;18.10;99.90;;;;;;5095546;28;20030;-60
2022/10/21 12:41:22;;;;;;;8.88;5.40;;;18.20;99.90;;;;;;5114348;28;20027;-59
2022/10/21 12:43:59;;;;;;;19.20;11.00;;;18.30;99.90;;;;;;5113098;28;20024;-58
2022/10/21 12:46:29;;;;;;;13.63;9.95;;;18.40;99.90;;;;;;5082302;28;20077;-57
2022/10/21 12:48:58;;;;;;;14.60;8.10;;;18.40;99.90;;;;;;5073036;28;20029;-59
2022/10/21 12:51:28;;;;;;;15.25;9.13;;;18.50;99.90;;;;;;5090008;28;20039;-59
2022/10/21 12:54:02;;;;;;;13.40;7.18;;;18.60;99.90;;;;;;5091860;28;20028;-55